Terminal Aerodrome Forecast
Issued by NWS Northern Indiana

Home | Current Version | Previous Version | Text Only | Print | Product List | Glossary On
Versions: 1 2 3 4 5 6 7 8 9 10 11 12 13 14 15 16 17 18 19 20
000
FTUS43 KIWX 211300 AAA
TAFFWA
TAF AMD
KFWA 211321Z 2113/2212 33008KT P6SM BKN025
      TEMPO 2114/2116 BKN015
     FM211800 36010KT P6SM SCT035
     FM220000 02006KT P6SM FEW040=

USA.gov is the U.S. government's official web portal to all federal, state and local government web resources and services.